createdAt,value
2019-03-09T00:00:36.687Z,54.45
2019-03-09T00:03:10.027Z,54.50
2019-03-09T00:05:43.687Z,54.31
2019-03-09T00:08:17.131Z,54.26
2019-03-09T00:10:50.472Z,54.37
2019-03-09T00:13:23.819Z,54.41
2019-03-09T00:15:57.144Z,54.44
2019-03-09T00:18:30.766Z,54.38
2019-03-09T00:21:04.315Z,54.23
2019-03-09T00:23:39.470Z,54.42
2019-03-09T00:26:20.355Z,54.41
2019-03-09T00:28:55.459Z,54.72
2019-03-09T00:31:36.288Z,54.49
2019-03-09T00:34:09.614Z,54.56
2019-03-09T00:36:42.957Z,54.58
2019-03-09T00:39:18.205Z,54.54
2019-03-09T00:41:51.572Z,54.39
2019-03-09T00:44:24.970Z,54.55
2019-03-09T00:46:58.551Z,54.57
2019-03-09T00:49:32.104Z,54.72
2019-03-09T00:52:05.519Z,54.64
2019-03-09T00:54:38.829Z,54.83
2019-03-09T00:57:12.256Z,54.63
2019-03-09T00:59:45.589Z,54.63
2019-03-09T01:02:19.028Z,54.59
2019-03-09T01:04:52.443Z,54.68
2019-03-09T01:07:25.879Z,54.90
2019-03-09T01:09:59.204Z,54.82
2019-03-09T01:12:32.545Z,54.71
2019-03-09T01:15:07.800Z,55.06
2019-03-09T01:17:41.174Z,55.27
2019-03-09T01:20:16.135Z,55.82
2019-03-09T01:22:49.493Z,56.08
2019-03-09T01:25:22.791Z,56.63
2019-03-09T01:27:56.202Z,56.80
2019-03-09T01:30:29.506Z,57.50
2019-03-09T01:33:02.845Z,57.25
2019-03-09T01:35:36.171Z,57.76
2019-03-09T01:38:09.546Z,58.17
2019-03-09T01:40:42.926Z,58.17
2019-03-09T01:43:16.304Z,58.08
2019-03-09T01:45:49.616Z,58.06
2019-03-09T01:48:22.965Z,58.07
2019-03-09T01:50:56.346Z,58.24
2019-03-09T01:53:36.374Z,58.42
2019-03-09T01:56:04.810Z,58.49
2019-03-09T01:58:38.169Z,58.91
2019-03-09T02:01:11.569Z,59.19
2019-03-09T02:03:44.918Z,59.38
2019-03-09T02:06:18.236Z,59.47
2019-03-09T02:08:51.652Z,59.60
2019-03-09T02:11:25.036Z,59.87
2019-03-09T02:13:58.444Z,60.17
2019-03-09T02:16:31.768Z,60.30
2019-03-09T02:19:05.185Z,60.55
2019-03-09T02:21:38.489Z,60.30
2019-03-09T02:24:11.838Z,60.21
2019-03-09T02:26:45.191Z,60.27
2019-03-09T02:29:18.618Z,60.45
2019-03-09T02:31:52.015Z,60.53
2019-03-09T02:34:25.368Z,60.79
2019-03-09T02:36:58.706Z,61.01
2019-03-09T02:39:42.342Z,61.01
2019-03-09T02:42:15.670Z,61.55
2019-03-09T02:44:49.470Z,61.82
2019-03-09T02:47:22.803Z,61.73
2019-03-09T02:49:56.152Z,61.69
2019-03-09T02:52:29.484Z,62.03
2019-03-09T02:55:02.929Z,61.95
2019-03-09T02:57:36.259Z,62.04
2019-03-09T03:00:18.722Z,62.26
2019-03-09T03:02:53.699Z,62.21
2019-03-09T03:05:27.095Z,61.99
2019-03-09T03:08:00.442Z,62.03
2019-03-09T03:10:33.806Z,62.11
2019-03-09T03:13:07.431Z,62.00
2019-03-09T03:15:40.788Z,62.65
2019-03-09T03:18:14.202Z,62.38
2019-03-09T03:20:47.574Z,62.76
2019-03-09T03:23:20.911Z,62.43
2019-03-09T03:25:54.338Z,62.72
2019-03-09T03:28:27.761Z,62.84
2019-03-09T03:31:01.213Z,62.76
2019-03-09T03:33:34.618Z,62.93
2019-03-09T03:36:08.061Z,63.04
2019-03-09T03:38:41.402Z,63.22
2019-03-09T03:41:14.847Z,64.17
2019-03-09T03:43:48.246Z,63.61
2019-03-09T03:46:21.693Z,63.74
2019-03-09T03:48:55.036Z,63.83
2019-03-09T03:51:28.431Z,64.40
2019-03-09T03:54:01.830Z,64.14
2019-03-09T03:56:35.427Z,64.21
2019-03-09T03:59:08.874Z,64.80
2019-03-09T04:01:42.353Z,65.20
2019-03-09T04:04:15.790Z,64.70
2019-03-09T04:06:49.220Z,64.66
2019-03-09T04:09:22.741Z,65.55
2019-03-09T04:11:56.136Z,65.53
2019-03-09T04:14:29.539Z,65.74
2019-03-09T04:17:02.874Z,65.72
2019-03-09T04:19:36.346Z,65.42
2019-03-09T04:22:09.822Z,65.53
2019-03-09T04:24:43.222Z,65.96
2019-03-09T04:27:16.680Z,66.21
2019-03-09T04:29:50.110Z,65.92
2019-03-09T04:32:23.508Z,65.83
2019-03-09T04:34:56.945Z,65.99
2019-03-09T04:37:30.296Z,65.97
2019-03-09T04:40:09.504Z,65.80
2019-03-09T04:42:42.837Z,65.94
2019-03-09T04:45:16.264Z,66.24
2019-03-09T04:47:49.668Z,65.98
2019-03-09T04:50:23.073Z,66.15
2019-03-09T04:52:57.303Z,65.93
2019-03-09T04:55:30.725Z,66.01
2019-03-09T04:58:04.054Z,65.65
2019-03-09T05:00:37.490Z,65.92
2019-03-09T05:03:10.887Z,66.53
2019-03-09T05:05:44.322Z,66.59
2019-03-09T05:08:20.842Z,66.38
2019-03-09T05:11:00.431Z,66.00
2019-03-09T05:13:36.798Z,66.22
2019-03-09T05:16:10.216Z,66.50
2019-03-09T05:18:43.541Z,66.77
2019-03-09T05:21:17.024Z,66.83
2019-03-09T05:23:50.424Z,66.54
2019-03-09T05:26:23.806Z,66.78
2019-03-09T05:28:57.226Z,67.03
2019-03-09T05:31:30.746Z,66.61
2019-03-09T05:34:04.261Z,66.00
2019-03-09T05:36:37.793Z,66.82
2019-03-09T05:39:11.256Z,66.91
2019-03-09T05:41:44.629Z,66.76
2019-03-09T05:44:19.616Z,67.13
2019-03-09T05:46:52.984Z,66.31
2019-03-09T05:49:26.332Z,66.67
2019-03-09T05:52:19.725Z,66.56
2019-03-09T05:54:53.278Z,66.70
2019-03-09T05:57:26.745Z,67.79
2019-03-09T06:00:00.453Z,67.22
2019-03-09T06:02:33.971Z,66.94
2019-03-09T06:05:33.994Z,66.95
2019-03-09T06:08:07.876Z,66.90
2019-03-09T06:10:41.611Z,66.72
2019-03-09T06:13:15.099Z,66.85
2019-03-09T06:15:48.487Z,67.33
2019-03-09T06:18:21.835Z,67.07
2019-03-09T06:20:55.277Z,67.26
2019-03-09T06:23:28.614Z,67.70
2019-03-09T06:26:02.174Z,67.17
2019-03-09T06:28:35.655Z,67.33
2019-03-09T06:31:09.131Z,67.19
2019-03-09T06:33:42.552Z,67.09
2019-03-09T06:36:19.126Z,66.65
2019-03-09T06:38:57.819Z,66.50
2019-03-09T06:41:53.717Z,66.47
2019-03-09T06:44:27.111Z,66.64
2019-03-09T06:47:00.562Z,66.43
2019-03-09T06:49:33.984Z,66.27
2019-03-09T06:52:07.484Z,66.13
2019-03-09T06:54:40.944Z,65.97
2019-03-09T06:57:14.390Z,66.31
2019-03-09T06:59:47.862Z,66.68
2019-03-09T07:02:21.395Z,66.21
2019-03-09T07:04:54.808Z,66.26
2019-03-09T07:07:28.402Z,66.43
2019-03-09T07:10:01.732Z,65.84
2019-03-09T07:12:35.098Z,65.50
2019-03-09T07:15:17.573Z,65.80
2019-03-09T07:17:52.142Z,65.77
2019-03-09T07:20:25.536Z,66.19
2019-03-09T07:22:59.099Z,65.47
2019-03-09T07:25:32.599Z,65.14
2019-03-09T07:28:08.684Z,65.52
2019-03-09T07:30:42.090Z,65.16
2019-03-09T07:33:16.169Z,65.49
2019-03-09T07:35:49.601Z,65.45
2019-03-09T07:38:23.042Z,65.11
2019-03-09T07:40:56.470Z,65.26
2019-03-09T07:43:29.912Z,65.32
2019-03-09T07:46:03.326Z,65.21
2019-03-09T07:48:36.930Z,65.35
2019-03-09T07:51:10.342Z,65.06
2019-03-09T07:53:43.772Z,65.35
2019-03-09T07:56:17.424Z,65.28
2019-03-09T07:58:50.802Z,65.57
2019-03-09T08:01:24.342Z,64.91
2019-03-09T08:03:57.686Z,64.35
2019-03-09T08:06:31.046Z,64.14
2019-03-09T08:09:05.876Z,64.33
2019-03-09T08:11:39.283Z,63.52
2019-03-09T08:14:12.652Z,63.50
2019-03-09T08:16:48.028Z,62.68
2019-03-09T08:19:21.365Z,59.46
2019-03-09T08:21:54.752Z,61.47
2019-03-09T08:24:28.077Z,61.16
2019-03-09T08:27:01.590Z,60.94
2019-03-09T08:29:35.036Z,60.14
2019-03-09T08:32:08.510Z,60.61
2019-03-09T08:34:42.043Z,60.06
2019-03-09T08:37:15.518Z,60.03
2019-03-09T08:39:48.922Z,59.29
2019-03-09T08:42:22.288Z,57.72
2019-03-09T08:44:55.651Z,59.63
2019-03-09T08:47:29.045Z,59.71
2019-03-09T08:50:02.461Z,60.02
2019-03-09T08:52:36.057Z,60.25
2019-03-09T08:55:11.058Z,60.31
2019-03-09T08:57:44.653Z,59.84
2019-03-09T09:00:20.895Z,60.16
2019-03-09T09:02:54.398Z,59.90
2019-03-09T09:05:27.835Z,60.11
2019-03-09T09:08:03.605Z,59.74
2019-03-09T09:10:36.325Z,59.91
2019-03-09T09:13:09.716Z,60.12
2019-03-09T09:15:43.055Z,60.19
2019-03-09T09:18:16.425Z,59.82
2019-03-09T09:20:49.781Z,59.48
2019-03-09T09:23:23.221Z,58.77
2019-03-09T09:25:56.554Z,58.66
2019-03-09T09:28:29.938Z,57.39
2019-03-09T09:31:03.336Z,58.33
2019-03-09T09:33:36.902Z,57.91
2019-03-09T09:36:10.310Z,58.08
2019-03-09T09:38:43.683Z,58.08
2019-03-09T09:41:17.037Z,57.41
2019-03-09T09:43:50.411Z,56.92
2019-03-09T09:46:23.810Z,55.57
2019-03-09T09:48:57.220Z,57.22
2019-03-09T09:51:30.639Z,57.12
2019-03-09T09:54:04.154Z,56.26
2019-03-09T09:56:37.559Z,56.94
2019-03-09T09:59:10.936Z,56.67
2019-03-09T10:01:44.275Z,56.34
2019-03-09T10:04:17.675Z,55.94
2019-03-09T10:06:51.083Z,55.22
2019-03-09T10:09:24.520Z,56.35
2019-03-09T10:11:57.857Z,56.17
2019-03-09T10:14:31.233Z,56.05
2019-03-09T10:17:04.696Z,55.46
2019-03-09T10:19:38.126Z,54.76
2019-03-09T10:22:11.537Z,54.24
2019-03-09T10:24:44.932Z,51.21
2019-03-09T10:27:18.285Z,54.51
2019-03-09T10:29:51.830Z,53.85
2019-03-09T10:32:25.613Z,53.39
2019-03-09T10:34:59.166Z,52.57
2019-03-09T10:37:32.693Z,51.24
2019-03-09T10:40:09.099Z,49.71
2019-03-09T10:42:42.447Z,49.97
2019-03-09T10:45:18.220Z,48.09
2019-03-09T10:47:51.902Z,50.67
2019-03-09T10:50:26.107Z,49.41
2019-03-09T10:52:59.621Z,49.98
2019-03-09T10:55:34.331Z,49.82
2019-03-09T10:58:07.661Z,50.02
2019-03-09T11:00:45.452Z,49.79
2019-03-09T11:03:18.882Z,49.21
2019-03-09T11:05:52.406Z,49.78
2019-03-09T11:08:25.905Z,47.77
2019-03-09T11:10:59.373Z,49.82
2019-03-09T11:13:32.711Z,49.15
2019-03-09T11:16:06.093Z,49.28
2019-03-09T11:18:39.438Z,49.33
2019-03-09T11:21:12.885Z,49.07
2019-03-09T11:23:46.427Z,50.99
2019-03-09T11:26:19.935Z,50.06
2019-03-09T11:28:53.263Z,49.14
2019-03-09T11:31:26.625Z,49.39
2019-03-09T11:33:59.990Z,49.76
2019-03-09T11:36:33.420Z,49.09
2019-03-09T11:39:07.835Z,48.88
2019-03-09T11:41:41.364Z,49.26
2019-03-09T11:44:14.701Z,47.57
2019-03-09T11:46:48.058Z,48.58
2019-03-09T11:49:21.395Z,48.27
2019-03-09T11:51:54.900Z,49.24
2019-03-09T11:54:28.385Z,49.36
2019-03-09T11:57:01.847Z,48.79
2019-03-09T11:59:35.313Z,49.22
2019-03-09T12:02:08.856Z,48.58
2019-03-09T12:04:46.712Z,45.42
2019-03-09T12:07:17.392Z,46.13
2019-03-09T12:09:50.773Z,47.04
2019-03-09T12:12:24.185Z,47.03
2019-03-09T12:14:57.631Z,46.29
2019-03-09T12:17:31.390Z,46.65
2019-03-09T12:20:07.095Z,45.66
2019-03-09T12:22:40.685Z,46.29
2019-03-09T12:25:18.175Z,46.89
2019-03-09T12:27:51.538Z,47.45
2019-03-09T12:30:24.953Z,45.95
2019-03-09T12:32:58.321Z,47.05
2019-03-09T12:35:31.842Z,45.86
2019-03-09T12:38:05.167Z,45.39
2019-03-09T12:40:38.611Z,46.02
2019-03-09T12:43:12.012Z,46.44
2019-03-09T12:45:45.411Z,45.64
2019-03-09T12:48:18.822Z,43.43
2019-03-09T12:50:52.352Z,43.61
2019-03-09T12:53:25.781Z,45.63
2019-03-09T12:55:59.149Z,44.79
2019-03-09T12:58:32.560Z,43.48
2019-03-09T13:01:05.930Z,44.35
2019-03-09T13:03:39.355Z,44.89
2019-03-09T13:06:12.875Z,44.97
2019-03-09T13:08:46.220Z,45.18
2019-03-09T13:11:19.590Z,45.33
2019-03-09T13:13:52.986Z,45.95
2019-03-09T13:16:26.345Z,46.78
2019-03-09T13:18:59.679Z,46.98
2019-03-09T13:21:33.124Z,45.79
2019-03-09T13:24:06.555Z,46.35
2019-03-09T13:26:39.930Z,45.46
2019-03-09T13:29:13.325Z,45.15
2019-03-09T13:31:46.702Z,44.13
2019-03-09T13:34:20.056Z,44.64
2019-03-09T13:36:53.675Z,43.88
2019-03-09T13:39:27.081Z,43.90
2019-03-09T13:42:00.451Z,43.87
2019-03-09T13:44:33.783Z,43.71
2019-03-09T13:47:07.559Z,43.48
2019-03-09T13:49:40.895Z,43.23
2019-03-09T13:52:14.260Z,43.03
2019-03-09T13:54:47.589Z,42.51
2019-03-09T13:57:20.968Z,43.14
2019-03-09T13:59:54.570Z,42.84
2019-03-09T14:02:28.085Z,43.16
2019-03-09T14:05:01.616Z,43.60
2019-03-09T14:07:35.076Z,43.85
2019-03-09T14:10:13.185Z,45.12
2019-03-09T14:12:46.567Z,45.73
2019-03-09T14:15:20.090Z,44.50
2019-03-09T14:17:53.843Z,45.11
2019-03-09T14:20:27.561Z,44.87
2019-03-09T14:23:01.062Z,44.69
2019-03-09T14:25:34.457Z,45.13
2019-03-09T14:28:07.903Z,45.78
2019-03-09T14:30:41.411Z,45.81
2019-03-09T14:33:14.784Z,46.17
2019-03-09T14:35:48.146Z,46.10
2019-03-09T14:38:21.535Z,46.89
2019-03-09T14:40:54.870Z,46.25
2019-03-09T14:43:28.259Z,46.77
2019-03-09T14:46:01.586Z,47.67
2019-03-09T14:48:34.957Z,46.53
2019-03-09T14:51:08.376Z,46.58
2019-03-09T14:53:41.801Z,46.50
2019-03-09T14:56:15.141Z,46.96
2019-03-09T14:58:48.586Z,46.49
2019-03-09T15:01:21.990Z,47.43
2019-03-09T15:03:55.435Z,47.56
2019-03-09T15:06:28.857Z,47.88
2019-03-09T15:09:02.219Z,47.39
2019-03-09T15:11:35.623Z,46.93
2019-03-09T15:14:08.993Z,46.57
2019-03-09T15:16:42.358Z,47.42
2019-03-09T15:19:15.705Z,47.19
2019-03-09T15:21:49.099Z,47.55
2019-03-09T15:24:22.699Z,47.50
2019-03-09T15:26:56.051Z,47.41
2019-03-09T15:29:29.478Z,47.49
2019-03-09T15:32:02.872Z,47.13
2019-03-09T15:34:36.270Z,48.18
2019-03-09T15:37:09.710Z,47.80
2019-03-09T15:39:43.107Z,48.13
2019-03-09T15:42:16.532Z,48.41
2019-03-09T15:44:49.871Z,48.37
2019-03-09T15:47:23.375Z,48.10
2019-03-09T15:49:56.851Z,48.93
2019-03-09T15:52:30.240Z,50.00
2019-03-09T15:55:04.120Z,50.30
2019-03-09T15:57:37.552Z,51.19
2019-03-09T16:00:23.988Z,52.20
2019-03-09T16:02:57.352Z,54.04
2019-03-09T16:05:30.788Z,55.58
2019-03-09T16:08:04.294Z,57.37
2019-03-09T16:10:37.759Z,57.54
2019-03-09T16:13:11.137Z,58.06
2019-03-09T16:15:44.474Z,57.98
2019-03-09T16:18:17.831Z,59.58
2019-03-09T16:20:51.200Z,58.76
2019-03-09T16:23:24.826Z,59.22
2019-03-09T16:25:58.257Z,59.93
2019-03-09T16:28:31.586Z,59.10
2019-03-09T16:31:05.018Z,58.91
2019-03-09T16:33:38.452Z,59.53
2019-03-09T16:36:11.814Z,59.39
2019-03-09T16:38:45.261Z,59.32
2019-03-09T16:41:18.648Z,60.35
2019-03-09T16:43:52.119Z,61.02
2019-03-09T16:46:25.527Z,60.76
2019-03-09T16:48:58.873Z,61.21
2019-03-09T16:51:32.310Z,61.57
2019-03-09T16:54:05.655Z,61.75
2019-03-09T16:56:39.098Z,62.13
2019-03-09T16:59:12.443Z,61.44
2019-03-09T17:01:45.871Z,61.53
2019-03-09T17:04:19.211Z,61.75
2019-03-09T17:06:52.570Z,61.57
2019-03-09T17:09:25.969Z,61.31
2019-03-09T17:11:59.424Z,61.27
2019-03-09T17:14:32.771Z,61.87
2019-03-09T17:17:06.146Z,61.77
2019-03-09T17:19:39.617Z,61.60
2019-03-09T17:22:13.050Z,61.42
2019-03-09T17:24:46.384Z,61.39
2019-03-09T17:27:19.742Z,61.55
2019-03-09T17:29:53.150Z,61.74
2019-03-09T17:32:26.537Z,61.64
2019-03-09T17:34:59.955Z,61.84
2019-03-09T17:37:33.327Z,61.72
2019-03-09T17:40:08.796Z,61.88
2019-03-09T17:42:42.293Z,62.01
2019-03-09T17:45:27.208Z,63.59
2019-03-09T17:48:00.677Z,63.36
2019-03-09T17:50:34.041Z,62.57
2019-03-09T17:53:07.524Z,62.69
2019-03-09T17:55:40.919Z,64.42
2019-03-09T17:58:14.283Z,63.61
2019-03-09T18:00:48.561Z,63.14
2019-03-09T18:03:21.982Z,63.44
2019-03-09T18:05:55.402Z,63.30
2019-03-09T18:08:28.790Z,63.66
2019-03-09T18:11:08.328Z,62.85
2019-03-09T18:13:41.754Z,63.74
2019-03-09T18:16:15.081Z,63.24
2019-03-09T18:18:48.523Z,63.06
2019-03-09T18:21:21.875Z,63.12
2019-03-09T18:23:55.230Z,63.03
2019-03-09T18:26:28.560Z,62.29
2019-03-09T18:29:01.948Z,62.78
2019-03-09T18:31:35.277Z,62.39
2019-03-09T18:34:08.644Z,62.10
2019-03-09T18:36:42.041Z,62.64
2019-03-09T18:39:15.469Z,61.36
2019-03-09T18:41:48.804Z,61.76
2019-03-09T18:44:22.176Z,61.54
2019-03-09T18:46:55.578Z,60.51
2019-03-09T18:49:28.963Z,60.16
2019-03-09T18:52:02.279Z,60.83
2019-03-09T18:54:35.631Z,60.70
2019-03-09T18:57:09.053Z,60.39
2019-03-09T18:59:42.572Z,60.23
2019-03-09T19:02:16.126Z,60.39
2019-03-09T19:04:49.485Z,60.00
2019-03-09T19:07:22.885Z,60.18
2019-03-09T19:09:56.497Z,60.03
2019-03-09T19:12:29.892Z,59.75
2019-03-09T19:15:03.256Z,59.73
2019-03-09T19:17:36.582Z,59.67
2019-03-09T19:20:14.565Z,59.43
2019-03-09T19:22:48.034Z,59.69
2019-03-09T19:25:21.464Z,59.37
2019-03-09T19:27:54.802Z,59.39
2019-03-09T19:30:28.191Z,59.22
2019-03-09T19:33:01.527Z,59.32
2019-03-09T19:35:34.891Z,58.57
2019-03-09T19:38:08.279Z,59.00
2019-03-09T19:40:41.725Z,58.85
2019-03-09T19:43:15.065Z,58.81
2019-03-09T19:45:48.503Z,58.85
2019-03-09T19:48:21.844Z,58.85
2019-03-09T19:50:55.290Z,58.26
2019-03-09T19:53:28.615Z,58.91
2019-03-09T19:56:01.984Z,58.68
2019-03-09T19:58:35.423Z,58.84
2019-03-09T20:01:08.819Z,58.19
2019-03-09T20:03:42.243Z,58.77
2019-03-09T20:06:15.645Z,58.71
2019-03-09T20:08:49.006Z,58.72
2019-03-09T20:11:22.392Z,58.96
2019-03-09T20:13:55.755Z,58.39
2019-03-09T20:16:29.091Z,58.88
2019-03-09T20:19:02.546Z,58.79
2019-03-09T20:21:35.841Z,58.80
2019-03-09T20:24:09.279Z,58.76
2019-03-09T20:26:42.676Z,58.59
2019-03-09T20:29:16.098Z,59.21
2019-03-09T20:31:49.534Z,59.09
2019-03-09T20:34:22.899Z,59.04
2019-03-09T20:36:56.229Z,58.75
2019-03-09T20:39:29.690Z,58.76
2019-03-09T20:42:03.135Z,58.28
2019-03-09T20:44:36.496Z,58.34
2019-03-09T20:47:09.849Z,58.01
2019-03-09T20:49:43.218Z,56.82
2019-03-09T20:52:16.636Z,57.72
2019-03-09T20:54:50.000Z,58.40
2019-03-09T20:57:23.348Z,57.51
2019-03-09T20:59:56.739Z,58.00
2019-03-09T21:02:30.155Z,57.58
2019-03-09T21:05:04.195Z,56.57
2019-03-09T21:07:37.580Z,57.71
2019-03-09T21:10:16.713Z,55.95
2019-03-09T21:13:03.926Z,57.54
2019-03-09T21:15:37.404Z,57.09
2019-03-09T21:18:10.741Z,57.18
2019-03-09T21:20:44.151Z,57.28
2019-03-09T21:23:17.489Z,57.39
2019-03-09T21:25:50.933Z,57.23
2019-03-09T21:28:24.258Z,57.08
2019-03-09T21:30:57.678Z,57.12
2019-03-09T21:33:31.002Z,56.58
2019-03-09T21:36:04.364Z,56.73
2019-03-09T21:38:38.143Z,56.87
2019-03-09T21:41:13.262Z,57.14
2019-03-09T21:43:47.072Z,56.99
2019-03-09T21:46:20.443Z,57.20
2019-03-09T21:48:53.784Z,57.14
2019-03-09T21:51:27.156Z,56.93
2019-03-09T21:54:00.492Z,57.09
2019-03-09T21:56:33.863Z,57.04
2019-03-09T21:59:07.614Z,57.19
2019-03-09T22:01:40.988Z,57.24
2019-03-09T22:04:14.308Z,57.32
2019-03-09T22:06:47.804Z,57.25
2019-03-09T22:09:21.148Z,57.41
2019-03-09T22:11:54.636Z,56.98
2019-03-09T22:14:27.985Z,57.43
2019-03-09T22:17:01.342Z,57.46
2019-03-09T22:19:34.687Z,57.57
2019-03-09T22:22:08.128Z,57.06
2019-03-09T22:24:41.455Z,57.32
2019-03-09T22:27:14.816Z,57.70
2019-03-09T22:29:48.179Z,57.54
2019-03-09T22:32:21.511Z,57.24
2019-03-09T22:34:54.835Z,57.49
2019-03-09T22:37:28.197Z,57.44
2019-03-09T22:40:01.537Z,57.41
2019-03-09T22:42:34.912Z,57.96
2019-03-09T22:45:12.938Z,57.61
2019-03-09T22:47:46.389Z,57.69
2019-03-09T22:50:24.035Z,57.96
2019-03-09T22:52:57.439Z,57.73
2019-03-09T22:55:30.905Z,57.73
2019-03-09T22:58:04.310Z,57.66
2019-03-09T23:00:37.875Z,57.63
2019-03-09T23:03:11.344Z,57.23
2019-03-09T23:05:44.769Z,57.66
2019-03-09T23:08:18.170Z,58.09
2019-03-09T23:10:51.600Z,58.09
2019-03-09T23:13:24.996Z,57.93
2019-03-09T23:15:58.666Z,58.22
2019-03-09T23:18:32.336Z,58.17
2019-03-09T23:21:06.051Z,58.42
2019-03-09T23:23:39.674Z,58.38
2019-03-09T23:26:13.392Z,58.52
2019-03-09T23:28:47.752Z,58.43
2019-03-09T23:31:21.493Z,58.44
2019-03-09T23:33:55.092Z,58.29
2019-03-09T23:36:28.704Z,58.64
2019-03-09T23:39:02.157Z,58.60
2019-03-09T23:41:35.594Z,58.73
2019-03-09T23:44:09.012Z,58.85
2019-03-09T23:46:42.465Z,58.85
2019-03-09T23:49:15.929Z,58.45
2019-03-09T23:51:49.365Z,58.34
2019-03-09T23:54:22.813Z,58.39
2019-03-09T23:56:56.242Z,58.37
2019-03-09T23:59:32.451Z,57.67
